createdAt,value
2019-04-11T00:00:52.632Z,0.00
2019-04-11T00:01:53.448Z,0.00
2019-04-11T00:02:53.208Z,0.00
2019-04-11T00:03:53.523Z,0.00
2019-04-11T00:04:52.576Z,0.00
2019-04-11T00:05:52.900Z,0.00
2019-04-11T00:06:52.287Z,0.00
2019-04-11T00:07:52.286Z,0.00
2019-04-11T00:08:52.372Z,0.00
2019-04-11T00:09:52.116Z,0.00
2019-04-11T00:10:52.056Z,0.00
2019-04-11T00:11:52.382Z,0.00
2019-04-11T00:12:51.971Z,0.00
2019-04-11T00:13:51.885Z,0.00
2019-04-11T00:14:51.872Z,0.00
2019-04-11T00:15:51.911Z,0.00
2019-04-11T00:16:51.751Z,0.00
2019-04-11T00:17:52.338Z,0.00
2019-04-11T00:18:51.596Z,0.00
2019-04-11T00:19:51.638Z,0.00
2019-04-11T00:20:52.628Z,0.00
2019-04-11T00:21:51.455Z,0.00
2019-04-11T00:22:52.590Z,0.00
2019-04-11T00:23:51.308Z,0.00
2019-04-11T00:24:51.328Z,0.00
2019-04-11T00:25:51.666Z,0.00
2019-04-11T00:26:51.136Z,0.00
2019-04-11T00:27:51.109Z,0.00
2019-04-11T00:28:52.019Z,0.00
2019-04-11T00:29:51.415Z,0.00
2019-04-11T00:30:50.939Z,0.00
2019-04-11T00:31:50.847Z,0.00
2019-04-11T00:32:51.868Z,0.00
2019-04-11T00:33:50.844Z,0.00
2019-04-11T00:34:51.148Z,0.00
2019-04-11T00:35:50.648Z,0.00
2019-04-11T00:36:50.572Z,0.00
2019-04-11T00:37:51.394Z,0.00
2019-04-11T00:38:50.445Z,0.00
2019-04-11T00:39:50.387Z,0.00
2019-04-11T00:40:51.249Z,0.00
2019-04-11T00:41:50.329Z,0.00
2019-04-11T00:42:50.517Z,0.00
2019-04-11T00:43:50.487Z,0.00
2019-04-11T00:44:50.127Z,0.00
2019-04-11T00:45:50.040Z,0.00
2019-04-11T00:46:50.914Z,0.00
2019-04-11T00:47:50.171Z,0.00
2019-04-11T00:48:50.333Z,0.00
2019-04-11T00:49:50.478Z,0.00
2019-04-11T00:50:49.782Z,0.00
2019-04-11T00:51:49.993Z,0.00
2019-04-11T00:52:49.714Z,0.00
2019-04-11T00:53:49.990Z,0.00
2019-04-11T00:54:49.531Z,0.00
2019-04-11T00:55:49.490Z,0.00
2019-04-11T00:56:50.555Z,0.00
2019-04-11T00:57:49.547Z,0.00
2019-04-11T00:58:49.931Z,0.00
2019-04-11T00:59:49.266Z,0.00
2019-04-11T01:00:49.414Z,0.00
2019-04-11T01:01:50.051Z,0.00
2019-04-11T01:02:49.599Z,0.00
2019-04-11T01:03:49.567Z,0.00
2019-04-11T01:04:48.976Z,0.00
2019-04-11T01:05:49.848Z,0.00
2019-04-11T01:06:48.823Z,0.00
2019-04-11T01:07:49.202Z,0.00
2019-04-11T01:08:48.721Z,0.00
2019-04-11T01:09:48.698Z,0.00
2019-04-11T01:10:49.657Z,0.00
2019-04-11T01:11:48.532Z,0.00
2019-04-11T01:12:49.783Z,0.00
2019-04-11T01:13:52.403Z,0.00
2019-04-11T01:14:49.036Z,0.00
2019-04-11T01:15:48.959Z,0.00
2019-04-11T01:16:48.598Z,0.00
2019-04-11T01:17:48.184Z,0.00
2019-04-11T01:18:48.122Z,0.00
2019-04-11T01:19:49.043Z,0.00
2019-04-11T01:20:48.079Z,0.00
2019-04-11T01:21:48.777Z,0.00
2019-04-11T01:22:48.705Z,0.00
2019-04-11T01:23:47.833Z,0.00
2019-04-11T01:24:48.167Z,0.00
2019-04-11T01:25:48.549Z,0.00
2019-04-11T01:26:47.693Z,0.00
2019-04-11T01:27:47.994Z,0.00
2019-04-11T01:28:47.546Z,0.00
2019-04-11T01:29:47.485Z,0.00
2019-04-11T01:30:47.458Z,0.00
2019-04-11T01:31:47.367Z,0.00
2019-04-11T01:32:47.339Z,0.00
2019-04-11T01:33:48.307Z,0.00
2019-04-11T01:34:47.191Z,0.00
2019-04-11T01:35:47.785Z,0.00
2019-04-11T01:36:47.077Z,0.00
2019-04-11T01:37:48.092Z,0.00
2019-04-11T01:38:46.990Z,0.00
2019-04-11T01:39:47.393Z,0.00
2019-04-11T01:40:47.719Z,0.00
2019-04-11T01:41:46.785Z,0.00
2019-04-11T01:42:47.149Z,0.00
2019-04-11T01:43:55.339Z,0.00
2019-04-11T01:44:47.449Z,0.00
2019-04-11T01:45:46.551Z,0.00
2019-04-11T01:46:46.527Z,0.00
2019-04-11T01:47:46.927Z,0.00
2019-04-11T01:48:46.389Z,0.00
2019-04-11T01:49:46.316Z,0.00
2019-04-11T01:50:47.112Z,0.00
2019-04-11T01:51:46.201Z,0.00
2019-04-11T01:52:46.663Z,0.00
2019-04-11T01:53:46.915Z,0.00
2019-04-11T01:54:46.058Z,0.00
2019-04-11T01:55:45.965Z,0.00
2019-04-11T01:56:45.942Z,0.00
2019-04-11T01:57:46.487Z,0.00
2019-04-11T01:58:46.782Z,0.00
2019-04-11T01:59:45.902Z,0.00
2019-04-11T02:00:45.674Z,0.00
2019-04-11T02:01:45.620Z,0.00
2019-04-11T02:02:46.497Z,0.00
2019-04-11T02:03:45.668Z,0.00
2019-04-11T02:04:46.049Z,0.00
2019-04-11T02:05:45.384Z,0.00
2019-04-11T02:06:45.881Z,0.00
2019-04-11T02:07:45.264Z,0.00
2019-04-11T02:08:45.206Z,0.00
2019-04-11T02:09:46.301Z,0.00
2019-04-11T02:10:45.341Z,0.00
2019-04-11T02:11:45.748Z,0.00
2019-04-11T02:12:45.597Z,0.00
2019-04-11T02:13:44.913Z,0.00
2019-04-11T02:14:45.853Z,0.00
2019-04-11T02:15:44.793Z,0.00
2019-04-11T02:16:45.379Z,0.00
2019-04-11T02:17:44.680Z,0.00
2019-04-11T02:18:45.713Z,0.00
2019-04-11T02:19:44.812Z,0.00
2019-04-11T02:20:45.192Z,0.00
2019-04-11T02:21:44.443Z,0.00
2019-04-11T02:22:44.502Z,0.00
2019-04-11T02:23:45.479Z,0.00
2019-04-11T02:24:44.266Z,0.00
2019-04-11T02:25:44.962Z,0.00
2019-04-11T02:26:46.575Z,0.00
2019-04-11T02:27:44.334Z,0.00
2019-04-11T02:28:44.621Z,0.00
2019-04-11T02:29:44.808Z,0.00
2019-04-11T02:30:45.954Z,0.00
2019-04-11T02:31:44.524Z,0.00
2019-04-11T02:32:45.477Z,0.00
2019-04-11T02:33:43.740Z,0.00
2019-04-11T02:34:43.980Z,0.00
2019-04-11T02:35:44.767Z,0.00
2019-04-11T02:36:44.938Z,0.00
2019-04-11T02:37:44.423Z,0.00
2019-04-11T02:38:44.057Z,0.00
2019-04-11T02:39:43.408Z,0.00
2019-04-11T02:40:45.298Z,0.00
2019-04-11T02:41:44.580Z,0.00
2019-04-11T02:42:43.317Z,0.00
2019-04-11T02:43:44.518Z,0.00
2019-04-11T02:44:59.846Z,0.00
2019-04-11T02:45:55.639Z,0.00
2019-04-11T02:46:53.169Z,0.00
2019-04-11T02:47:46.190Z,0.00
2019-04-11T02:48:44.810Z,0.00
2019-04-11T02:49:43.586Z,0.00
2019-04-11T02:50:43.258Z,0.00
2019-04-11T02:51:43.127Z,0.00
2019-04-11T02:52:44.260Z,0.00
2019-04-11T02:53:42.633Z,0.00
2019-04-11T02:54:43.051Z,0.00
2019-04-11T02:55:43.883Z,0.00
2019-04-11T02:56:43.592Z,0.00
2019-04-11T02:57:42.897Z,0.00
2019-04-11T02:58:44.016Z,0.00
2019-04-11T02:59:44.477Z,0.00
2019-04-11T03:00:42.414Z,0.00
2019-04-11T03:01:42.150Z,0.00
2019-04-11T03:02:44.200Z,0.00
2019-04-11T03:03:42.432Z,0.00
2019-04-11T03:04:43.719Z,0.00
2019-04-11T03:05:43.569Z,0.00
2019-04-11T03:06:42.191Z,0.00
2019-04-11T03:07:42.354Z,0.00
2019-04-11T03:08:43.504Z,0.00
2019-04-11T03:09:41.766Z,0.00
2019-04-11T03:10:42.845Z,0.00
2019-04-11T03:11:42.960Z,0.00
2019-04-11T03:12:43.315Z,0.00
2019-04-11T03:13:42.124Z,0.00
2019-04-11T03:15:00.745Z,0.00
2019-04-11T03:15:57.466Z,0.00
2019-04-11T03:16:53.419Z,0.00
2019-04-11T03:17:44.623Z,0.00
2019-04-11T03:18:59.356Z,0.00
2019-04-11T03:19:53.589Z,0.00
2019-04-11T03:20:48.411Z,0.00
2019-04-11T03:21:43.887Z,0.00
2019-04-11T03:22:42.411Z,0.00
2019-04-11T03:23:41.863Z,0.00
2019-04-11T03:24:42.743Z,0.00
2019-04-11T03:25:40.743Z,0.00
2019-04-11T03:26:41.314Z,0.00
2019-04-11T03:27:40.951Z,0.00
2019-04-11T03:28:42.571Z,0.00
2019-04-11T03:29:40.794Z,0.00
2019-04-11T03:31:01.887Z,0.00
2019-04-11T03:32:20.362Z,0.00
2019-04-11T03:34:25.314Z,0.00
2019-04-11T03:38:00.423Z,0.00
2019-04-11T03:39:01.748Z,0.00
2019-04-11T03:39:59.548Z,0.00
2019-04-11T03:40:59.523Z,0.00
2019-04-11T03:41:54.702Z,0.00
2019-04-11T03:42:55.600Z,0.00
2019-04-11T03:43:51.055Z,0.00
2019-04-11T03:44:44.919Z,0.00
2019-04-11T03:45:58.946Z,0.00
2019-04-11T03:46:54.237Z,0.00
2019-04-11T03:47:55.961Z,0.00
2019-04-11T03:48:50.675Z,0.00
2019-04-11T03:49:48.104Z,0.00
2019-04-11T03:50:39.965Z,0.00
2019-04-11T03:51:40.916Z,0.00
2019-04-11T03:52:40.678Z,0.00
2019-04-11T03:53:39.024Z,0.00
2019-04-11T03:54:41.015Z,0.00
2019-04-11T03:55:39.117Z,0.00
2019-04-11T03:56:39.007Z,0.00
2019-04-11T03:57:39.407Z,0.00
2019-04-11T03:58:39.746Z,0.00
2019-04-11T03:59:40.550Z,0.00
2019-04-11T04:00:42.894Z,0.00
2019-04-11T04:01:39.824Z,0.00
2019-04-11T04:02:39.119Z,0.00
2019-04-11T04:03:39.268Z,0.00
2019-04-11T04:04:39.309Z,0.00
2019-04-11T04:05:39.066Z,0.00
2019-04-11T04:06:39.432Z,0.00
2019-04-11T04:07:38.334Z,4.00
2019-04-11T04:08:38.777Z,4.00
2019-04-11T04:09:39.688Z,0.00
2019-04-11T04:10:39.410Z,4.00
2019-04-11T04:11:38.455Z,0.00
2019-04-11T04:12:40.055Z,4.00
2019-04-11T04:13:38.939Z,4.00
2019-04-11T04:14:39.157Z,4.00
2019-04-11T04:15:52.562Z,8.00
2019-04-11T04:16:44.459Z,8.00
2019-04-11T04:17:39.171Z,8.00
2019-04-11T04:18:38.099Z,8.00
2019-04-11T04:19:38.110Z,12.00
2019-04-11T04:20:37.459Z,12.00
2019-04-11T04:21:38.756Z,16.00
2019-04-11T04:22:37.714Z,16.00
2019-04-11T04:23:38.022Z,16.00
2019-04-11T04:24:39.998Z,20.00
2019-04-11T04:25:39.056Z,24.00
2019-04-11T04:26:37.061Z,32.00
2019-04-11T04:27:38.639Z,36.00
2019-04-11T04:28:38.149Z,36.00
2019-04-11T04:29:37.858Z,44.00
2019-04-11T04:30:38.532Z,48.00
2019-04-11T04:31:38.434Z,52.00
2019-04-11T04:32:38.492Z,60.00
2019-04-11T04:33:38.440Z,68.00
2019-04-11T04:34:36.784Z,76.00
2019-04-11T04:35:38.026Z,84.00
2019-04-11T04:36:37.811Z,92.00
2019-04-11T04:37:36.400Z,104.00
2019-04-11T04:38:38.682Z,116.00
2019-04-11T04:39:37.057Z,124.00
2019-04-11T04:40:53.871Z,136.00
2019-04-11T04:41:41.404Z,148.00
2019-04-11T04:42:40.297Z,160.00
2019-04-11T04:43:36.551Z,172.00
2019-04-11T04:44:35.986Z,188.00
2019-04-11T04:45:54.524Z,204.00
2019-04-11T04:46:52.619Z,220.00
2019-04-11T04:47:44.200Z,232.00
2019-04-11T04:48:35.786Z,252.00
2019-04-11T04:49:36.494Z,268.00
2019-04-11T04:50:36.686Z,284.00
2019-04-11T04:51:37.134Z,304.00
2019-04-11T04:52:36.581Z,320.00
2019-04-11T04:53:35.737Z,344.00
2019-04-11T04:54:36.518Z,364.00
2019-04-11T04:55:36.622Z,388.00
2019-04-11T04:56:36.910Z,408.00
2019-04-11T04:57:35.821Z,428.00
2019-04-11T04:58:35.361Z,448.00
2019-04-11T04:59:37.542Z,472.00
2019-04-11T05:00:35.075Z,496.00
2019-04-11T05:01:35.183Z,524.00
2019-04-11T05:02:36.897Z,548.00
2019-04-11T05:03:34.869Z,572.00
2019-04-11T05:04:36.055Z,600.00
2019-04-11T05:05:35.736Z,628.00
2019-04-11T05:06:34.685Z,656.00
2019-04-11T05:07:39.806Z,684.00
2019-04-11T05:08:34.807Z,708.00
2019-04-11T05:09:36.063Z,736.00
2019-04-11T05:10:35.842Z,768.00
2019-04-11T05:11:36.036Z,796.00
2019-04-11T05:12:34.659Z,828.00
2019-04-11T05:13:34.571Z,860.00
2019-04-11T05:14:35.045Z,900.00
2019-04-11T05:15:34.534Z,928.00
2019-04-11T05:16:35.596Z,960.00
2019-04-11T05:17:34.557Z,988.00
2019-04-11T05:18:34.231Z,1020.00
2019-04-11T05:19:34.147Z,1048.00
2019-04-11T05:20:34.261Z,1076.00
2019-04-11T05:21:33.780Z,1108.00
2019-04-11T05:22:33.719Z,1140.00
2019-04-11T05:23:33.882Z,1172.00
2019-04-11T05:24:34.745Z,1200.00
2019-04-11T05:25:33.543Z,1228.00
2019-04-11T05:26:33.516Z,1260.00
2019-04-11T05:27:33.591Z,1288.00
2019-04-11T05:28:33.358Z,1320.00
2019-04-11T05:29:33.521Z,1348.00
2019-04-11T05:30:33.461Z,1380.00
2019-04-11T05:31:34.368Z,1412.00
2019-04-11T05:32:33.481Z,1444.00
2019-04-11T05:33:33.104Z,1472.00
2019-04-11T05:34:33.046Z,1500.00
2019-04-11T05:35:33.424Z,1532.00
2019-04-11T05:36:32.883Z,1560.00
2019-04-11T05:37:33.310Z,1592.00
2019-04-11T05:38:32.868Z,1652.00
2019-04-11T05:39:33.784Z,1736.00
2019-04-11T05:40:32.647Z,1884.00
2019-04-11T05:41:33.521Z,2096.00
2019-04-11T05:42:33.383Z,1976.00
2019-04-11T05:43:37.250Z,1780.00
2019-04-11T05:44:32.681Z,1844.00
2019-04-11T05:45:32.380Z,2300.00
2019-04-11T05:46:40.661Z,3444.00
2019-04-11T05:47:32.231Z,3880.00
2019-04-11T05:48:32.207Z,2720.00
2019-04-11T05:49:36.566Z,2032.00
2019-04-11T05:50:32.126Z,2312.00
2019-04-11T05:51:36.888Z,2376.00
2019-04-11T05:52:33.475Z,2612.00
2019-04-11T05:53:33.578Z,3188.00
2019-04-11T05:54:31.818Z,3196.00
2019-04-11T05:55:32.123Z,2528.00
2019-04-11T05:56:31.695Z,2140.00
2019-04-11T05:57:35.858Z,2192.00
2019-04-11T05:58:32.484Z,2184.00
2019-04-11T05:59:32.676Z,2232.00
2019-04-11T06:00:32.523Z,2536.00
2019-04-11T06:01:31.398Z,2564.00
2019-04-11T06:02:31.337Z,2312.00
2019-04-11T06:03:32.323Z,3184.00
2019-04-11T06:04:32.323Z,4792.00
2019-04-11T06:05:33.056Z,4240.00
2019-04-11T06:06:36.080Z,4016.00
2019-04-11T06:07:31.042Z,3976.00
2019-04-11T06:08:32.295Z,3728.00
2019-04-11T06:09:34.818Z,4664.00
2019-04-11T06:10:30.864Z,4268.00
2019-04-11T06:11:30.803Z,2784.00
2019-04-11T06:12:31.769Z,3252.00
2019-04-11T06:13:30.683Z,3192.00
2019-04-11T06:14:31.210Z,3072.00
2019-04-11T06:15:31.255Z,2932.00
2019-04-11T06:16:39.636Z,2708.00
2019-04-11T06:17:30.450Z,2924.00
2019-04-11T06:18:35.378Z,5724.00
2019-04-11T06:19:30.563Z,6024.00
2019-04-11T06:20:31.304Z,7080.00
2019-04-11T06:21:30.209Z,7992.00
2019-04-11T06:22:30.150Z,7968.00
2019-04-11T06:23:30.107Z,10068.00
2019-04-11T06:24:30.063Z,10064.00
2019-04-11T06:25:30.980Z,5620.00
2019-04-11T06:26:30.420Z,3396.00
2019-04-11T06:27:30.498Z,2980.00
2019-04-11T06:28:30.749Z,2844.00
2019-04-11T06:29:31.128Z,2852.00
2019-04-11T06:30:30.494Z,2896.00
2019-04-11T06:31:29.834Z,2904.00
2019-04-11T06:32:29.938Z,2940.00
2019-04-11T06:33:29.541Z,2948.00
2019-04-11T06:34:30.417Z,2948.00
2019-04-11T06:35:30.302Z,2956.00
2019-04-11T06:36:30.103Z,2992.00
2019-04-11T06:37:29.798Z,3032.00
2019-04-11T06:38:30.322Z,3188.00
2019-04-11T06:39:29.498Z,3648.00
2019-04-11T06:40:29.253Z,3228.00
2019-04-11T06:41:29.034Z,4360.00
2019-04-11T06:42:30.177Z,5232.00
2019-04-11T06:43:28.955Z,4060.00
2019-04-11T06:44:29.975Z,3640.00
2019-04-11T06:45:29.415Z,3276.00
2019-04-11T06:46:29.232Z,3280.00
2019-04-11T06:47:29.187Z,4100.00
2019-04-11T06:48:29.680Z,4508.00
2019-04-11T06:49:28.850Z,3688.00
2019-04-11T06:50:28.505Z,4292.00
2019-04-11T06:51:28.502Z,3728.00
2019-04-11T06:52:28.740Z,3708.00
2019-04-11T06:53:28.325Z,3724.00
2019-04-11T06:54:28.703Z,3400.00
2019-04-11T06:55:28.973Z,3364.00
2019-04-11T06:56:29.317Z,4296.00
2019-04-11T06:57:28.212Z,3804.00
2019-04-11T06:58:28.042Z,4212.00
2019-04-11T06:59:28.201Z,3516.00
2019-04-11T07:00:27.934Z,3452.00
2019-04-11T07:01:28.069Z,3456.00
2019-04-11T07:02:27.978Z,3544.00
2019-04-11T07:03:30.391Z,3580.00
2019-04-11T07:04:27.737Z,3668.00
2019-04-11T07:05:28.868Z,3616.00
2019-04-11T07:06:27.567Z,3700.00
2019-04-11T07:07:28.980Z,3856.00
2019-04-11T07:08:27.480Z,3768.00
2019-04-11T07:09:28.618Z,3908.00
2019-04-11T07:10:28.514Z,4356.00
2019-04-11T07:11:27.628Z,4964.00
2019-04-11T07:12:27.218Z,4376.00
2019-04-11T07:13:28.309Z,4176.00
2019-04-11T07:14:27.102Z,4556.00
2019-04-11T07:15:27.263Z,4800.00
2019-04-11T07:16:27.638Z,4108.00
2019-04-11T07:17:27.527Z,3964.00
2019-04-11T07:18:27.013Z,4316.00
2019-04-11T07:19:26.811Z,4240.00
2019-04-11T07:20:27.254Z,3956.00
2019-04-11T07:21:27.579Z,4256.00
2019-04-11T07:22:26.639Z,4348.00
2019-04-11T07:23:26.583Z,4340.00
2019-04-11T07:24:26.718Z,3988.00
2019-04-11T07:25:26.867Z,4524.00
2019-04-11T07:26:27.382Z,6012.00
2019-04-11T07:27:26.349Z,5380.00
2019-04-11T07:28:27.346Z,6212.00
2019-04-11T07:29:26.235Z,4764.00
2019-04-11T07:30:26.200Z,4360.00
2019-04-11T07:31:27.559Z,4380.00
2019-04-11T07:32:26.061Z,4388.00
2019-04-11T07:33:26.725Z,4408.00
2019-04-11T07:34:26.760Z,4464.00
2019-04-11T07:35:27.533Z,4512.00
2019-04-11T07:36:27.252Z,4560.00
2019-04-11T07:37:26.177Z,4568.00
2019-04-11T07:38:25.717Z,4552.00
2019-04-11T07:39:25.915Z,4556.00
2019-04-11T07:40:26.770Z,4588.00
2019-04-11T07:41:26.103Z,4644.00
2019-04-11T07:42:25.959Z,4728.00
2019-04-11T07:43:25.455Z,4832.00
2019-04-11T07:44:27.558Z,4984.00
2019-04-11T07:45:25.404Z,4984.00
2019-04-11T07:46:26.007Z,4956.00
2019-04-11T07:47:26.467Z,4988.00
2019-04-11T07:48:25.490Z,4972.00
2019-04-11T07:49:26.432Z,5016.00
2019-04-11T07:50:26.221Z,5048.00
2019-04-11T07:51:25.627Z,5084.00
2019-04-11T07:52:25.061Z,5136.00
2019-04-11T07:53:26.149Z,5244.00
2019-04-11T07:54:25.915Z,5276.00
2019-04-11T07:55:25.809Z,5256.00
2019-04-11T07:56:25.117Z,5260.00
2019-04-11T07:57:24.697Z,5300.00
2019-04-11T07:58:24.594Z,5336.00
2019-04-11T07:59:25.019Z,5356.00
2019-04-11T08:00:36.748Z,5372.00
2019-04-11T08:01:24.901Z,5404.00
2019-04-11T08:02:24.531Z,5436.00
2019-04-11T08:03:25.492Z,5492.00
2019-04-11T08:04:24.267Z,5580.00
2019-04-11T08:05:24.214Z,5588.00
2019-04-11T08:06:24.371Z,5632.00
2019-04-11T08:07:24.444Z,5896.00
2019-04-11T08:08:24.047Z,5968.00
2019-04-11T08:09:24.477Z,6104.00
2019-04-11T08:10:24.826Z,6196.00
2019-04-11T08:11:23.888Z,6204.00
2019-04-11T08:12:23.878Z,6192.00
2019-04-11T08:13:23.783Z,6184.00
2019-04-11T08:14:24.495Z,6208.00
2019-04-11T08:15:23.827Z,6224.00
2019-04-11T08:16:23.624Z,6240.00
2019-04-11T08:17:30.924Z,6232.00
2019-04-11T08:18:24.378Z,6224.00
2019-04-11T08:19:24.673Z,6232.00
2019-04-11T08:20:23.528Z,6220.00
2019-04-11T08:21:23.367Z,6228.00
2019-04-11T08:22:23.350Z,6240.00
2019-04-11T08:23:23.454Z,6244.00
2019-04-11T08:24:25.768Z,6240.00
2019-04-11T08:25:23.169Z,6252.00
2019-04-11T08:26:24.161Z,6248.00
2019-04-11T08:27:23.257Z,6232.00
2019-04-11T08:28:23.042Z,6212.00
2019-04-11T08:29:24.220Z,6252.00
2019-04-11T08:30:22.927Z,6260.00
2019-04-11T08:31:22.876Z,6264.00
2019-04-11T08:32:22.861Z,6280.00
2019-04-11T08:33:22.778Z,6280.00
2019-04-11T08:34:23.649Z,6296.00
2019-04-11T08:35:22.688Z,6292.00
2019-04-11T08:36:23.937Z,6268.00
2019-04-11T08:37:23.298Z,6292.00
2019-04-11T08:38:22.572Z,6320.00
2019-04-11T08:39:22.839Z,6352.00
2019-04-11T08:40:22.452Z,6388.00
2019-04-11T08:41:23.213Z,6420.00
2019-04-11T08:42:23.394Z,6456.00
2019-04-11T08:43:23.359Z,6504.00
2019-04-11T08:44:22.264Z,6520.00
2019-04-11T08:45:22.214Z,6548.00
2019-04-11T08:46:22.596Z,6568.00
2019-04-11T08:47:22.543Z,6576.00
2019-04-11T08:48:22.112Z,6600.00
2019-04-11T08:49:22.022Z,6636.00
2019-04-11T08:50:22.737Z,6644.00
2019-04-11T08:51:23.124Z,6660.00
2019-04-11T08:52:22.522Z,6664.00
2019-04-11T08:53:21.878Z,6672.00
2019-04-11T08:54:21.789Z,6688.00
2019-04-11T08:55:22.967Z,6732.00
2019-04-11T08:56:21.702Z,6784.00
2019-04-11T08:57:21.647Z,6824.00
2019-04-11T08:58:22.628Z,6840.00
2019-04-11T08:59:21.616Z,6864.00
2019-04-11T09:00:22.084Z,6880.00
2019-04-11T09:01:22.230Z,6916.00
2019-04-11T09:02:21.537Z,6944.00
2019-04-11T09:03:21.779Z,6944.00
2019-04-11T09:04:21.887Z,6952.00
2019-04-11T09:05:21.270Z,6980.00
2019-04-11T09:06:21.223Z,7004.00
2019-04-11T09:07:21.240Z,7016.00
2019-04-11T09:08:23.275Z,7008.00
2019-04-11T09:09:21.216Z,7024.00
2019-04-11T09:10:21.997Z,7036.00
2019-04-11T09:11:20.988Z,7064.00
2019-04-11T09:12:20.944Z,7092.00
2019-04-11T09:13:20.893Z,7108.00
2019-04-11T09:14:22.114Z,7132.00
2019-04-11T09:15:21.136Z,7144.00
2019-04-11T09:16:21.602Z,7176.00
2019-04-11T09:17:21.465Z,7184.00
2019-04-11T09:18:21.752Z,7184.00
2019-04-11T09:19:21.018Z,7192.00
2019-04-11T09:20:21.416Z,7196.00
2019-04-11T09:21:20.520Z,7228.00
2019-04-11T09:22:20.555Z,7236.00
2019-04-11T09:23:20.421Z,7208.00
2019-04-11T09:24:20.385Z,7220.00
2019-04-11T09:25:21.187Z,7232.00
2019-04-11T09:26:20.313Z,7200.00
2019-04-11T09:27:20.472Z,7184.00
2019-04-11T09:28:20.184Z,7192.00
2019-04-11T09:29:20.159Z,7172.00
2019-04-11T09:30:20.955Z,7172.00
2019-04-11T09:31:21.177Z,7164.00
2019-04-11T09:32:20.159Z,7172.00
2019-04-11T09:33:20.750Z,7188.00
2019-04-11T09:34:19.903Z,7128.00
2019-04-11T09:35:19.852Z,7168.00
2019-04-11T09:36:19.837Z,7180.00
2019-04-11T09:37:20.451Z,7172.00
2019-04-11T09:38:19.713Z,7140.00
2019-04-11T09:39:19.662Z,7148.00
2019-04-11T09:40:19.619Z,7148.00
2019-04-11T09:41:20.557Z,7196.00
2019-04-11T09:42:22.180Z,7144.00
2019-04-11T09:43:19.885Z,7088.00
2019-04-11T09:44:20.368Z,7036.00
2019-04-11T09:45:19.634Z,7032.00
2019-04-11T09:46:19.340Z,7004.00
2019-04-11T09:47:19.939Z,7044.00
2019-04-11T09:48:19.890Z,7084.00
2019-04-11T09:49:19.192Z,7060.00
2019-04-11T09:50:20.299Z,7080.00
2019-04-11T09:51:19.134Z,7068.00
2019-04-11T09:52:19.054Z,7016.00
2019-04-11T09:53:19.267Z,7004.00
2019-04-11T09:54:19.787Z,7024.00
2019-04-11T09:55:19.168Z,7060.00
2019-04-11T09:56:18.866Z,7020.00
2019-04-11T09:57:18.820Z,7028.00
2019-04-11T09:58:19.629Z,6984.00
2019-04-11T09:59:18.759Z,6952.00
2019-04-11T10:00:18.674Z,6960.00
2019-04-11T10:01:18.634Z,6912.00
2019-04-11T10:02:18.835Z,6864.00
2019-04-11T10:03:19.640Z,6816.00
2019-04-11T10:04:18.828Z,6792.00
2019-04-11T10:05:18.441Z,6776.00
2019-04-11T10:06:19.474Z,6812.00
2019-04-11T10:07:19.412Z,6772.00
2019-04-11T10:08:18.957Z,6712.00
2019-04-11T10:09:18.302Z,6640.00
2019-04-11T10:10:19.037Z,6704.00
2019-04-11T10:11:18.157Z,6704.00
2019-04-11T10:12:18.113Z,6728.00
2019-04-11T10:13:18.639Z,6704.00
2019-04-11T10:14:18.058Z,6720.00
2019-04-11T10:15:18.891Z,6728.00
2019-04-11T10:16:18.029Z,6712.00
2019-04-11T10:17:20.641Z,6672.00
2019-04-11T10:18:25.197Z,6684.00
2019-04-11T10:19:17.911Z,6624.00
2019-04-11T10:20:18.328Z,6628.00
2019-04-11T10:21:17.723Z,6628.00
2019-04-11T10:22:18.572Z,6544.00
2019-04-11T10:23:18.698Z,6596.00
2019-04-11T10:24:20.540Z,6528.00
2019-04-11T10:25:17.508Z,6468.00
2019-04-11T10:26:18.133Z,6500.00
2019-04-11T10:27:17.413Z,6524.00
2019-04-11T10:28:17.520Z,6568.00
2019-04-11T10:29:17.317Z,6524.00
2019-04-11T10:30:17.394Z,6492.00
2019-04-11T10:31:18.103Z,6476.00
2019-04-11T10:32:17.187Z,6444.00
2019-04-11T10:33:17.131Z,6440.00
2019-04-11T10:34:17.549Z,6416.00
2019-04-11T10:35:18.429Z,6364.00
2019-04-11T10:36:17.033Z,6372.00
2019-04-11T10:37:17.866Z,6316.00
2019-04-11T10:38:16.899Z,6284.00
2019-04-11T10:39:18.192Z,6268.00
2019-04-11T10:40:17.733Z,6240.00
2019-04-11T10:41:16.804Z,6196.00
2019-04-11T10:42:16.749Z,6176.00
2019-04-11T10:43:16.667Z,6140.00
2019-04-11T10:44:16.621Z,6088.00
2019-04-11T10:45:16.574Z,6080.00
2019-04-11T10:46:17.432Z,6052.00
2019-04-11T10:47:16.573Z,6008.00
2019-04-11T10:48:16.459Z,5964.00
2019-04-11T10:49:16.389Z,5944.00
2019-04-11T10:50:17.426Z,5896.00
2019-04-11T10:51:17.086Z,5848.00
2019-04-11T10:52:16.271Z,5796.00
2019-04-11T10:53:16.692Z,5784.00
2019-04-11T10:54:16.185Z,5756.00
2019-04-11T10:55:16.115Z,5720.00
2019-04-11T10:56:16.089Z,5692.00
2019-04-11T10:57:16.042Z,5648.00
2019-04-11T10:58:16.286Z,5600.00
2019-04-11T10:59:15.944Z,5580.00
2019-04-11T11:00:15.916Z,5540.00
2019-04-11T11:01:15.839Z,5508.00
2019-04-11T11:02:15.796Z,5496.00
2019-04-11T11:03:15.797Z,5480.00
2019-04-11T11:04:15.865Z,5444.00
2019-04-11T11:05:17.944Z,5428.00
2019-04-11T11:06:15.646Z,5424.00
2019-04-11T11:07:16.232Z,5392.00
2019-04-11T11:08:15.516Z,5368.00
2019-04-11T11:09:15.493Z,5352.00
2019-04-11T11:10:15.480Z,5324.00
2019-04-11T11:11:16.412Z,5312.00
2019-04-11T11:12:15.336Z,5288.00
2019-04-11T11:13:16.023Z,5284.00
2019-04-11T11:14:15.305Z,5280.00
2019-04-11T11:15:15.582Z,5264.00
2019-04-11T11:16:15.921Z,5236.00
2019-04-11T11:17:28.874Z,5220.00
2019-04-11T11:18:49.169Z,5192.00
2019-04-11T11:19:33.555Z,5208.00
2019-04-11T11:20:22.318Z,5204.00
2019-04-11T11:21:14.927Z,5212.00
2019-04-11T11:22:14.878Z,5188.00
2019-04-11T11:23:14.830Z,5172.00
2019-04-11T11:24:15.511Z,5168.00
2019-04-11T11:25:16.754Z,5176.00
2019-04-11T11:26:20.838Z,5192.00
2019-04-11T11:27:15.720Z,5160.00
2019-04-11T11:28:15.829Z,5164.00
2019-04-11T11:29:15.811Z,5156.00
2019-04-11T11:30:14.543Z,5160.00
2019-04-11T11:31:14.466Z,5136.00
2019-04-11T11:32:14.453Z,5120.00
2019-04-11T11:33:14.392Z,5108.00
2019-04-11T11:34:17.365Z,5100.00
2019-04-11T11:35:15.149Z,5092.00
2019-04-11T11:36:15.247Z,5076.00
2019-04-11T11:37:15.652Z,5064.00
2019-04-11T11:38:14.412Z,5056.00
2019-04-11T11:39:15.191Z,5052.00
2019-04-11T11:40:16.560Z,5044.00
2019-04-11T11:41:14.291Z,5044.00
2019-04-11T11:42:14.382Z,5020.00
2019-04-11T11:43:14.819Z,4996.00
2019-04-11T11:44:13.909Z,4980.00
2019-04-11T11:45:13.830Z,4952.00
2019-04-11T11:46:14.120Z,4960.00
2019-04-11T11:47:13.743Z,4960.00
2019-04-11T11:48:18.495Z,4964.00
2019-04-11T11:49:14.275Z,4968.00
2019-04-11T11:50:18.236Z,4964.00
2019-04-11T11:51:13.612Z,4952.00
2019-04-11T11:52:13.511Z,4948.00
2019-04-11T11:53:14.778Z,4940.00
2019-04-11T11:54:13.682Z,4916.00
2019-04-11T11:55:13.370Z,4920.00
2019-04-11T11:56:13.765Z,4932.00
2019-04-11T11:57:13.316Z,4916.00
2019-04-11T11:58:16.818Z,4916.00
2019-04-11T11:59:13.348Z,4908.00
2019-04-11T12:00:13.323Z,4900.00
2019-04-11T12:01:13.553Z,4904.00
2019-04-11T12:02:17.259Z,4864.00
2019-04-11T12:03:12.999Z,4860.00
2019-04-11T12:04:12.958Z,4860.00
2019-04-11T12:05:16.226Z,4840.00
2019-04-11T12:06:12.860Z,4848.00
2019-04-11T12:07:12.844Z,4852.00
2019-04-11T12:08:15.342Z,4844.00
2019-04-11T12:09:14.061Z,4816.00
2019-04-11T12:10:13.367Z,4812.00
2019-04-11T12:11:13.606Z,4788.00
2019-04-11T12:12:13.562Z,4792.00
2019-04-11T12:13:13.314Z,4780.00
2019-04-11T12:14:12.629Z,4780.00
2019-04-11T12:15:16.925Z,4764.00
2019-04-11T12:16:16.093Z,4748.00
2019-04-11T12:17:12.353Z,4724.00
2019-04-11T12:18:13.049Z,4716.00
2019-04-11T12:19:15.855Z,4700.00
2019-04-11T12:20:14.953Z,4692.00
2019-04-11T12:21:13.454Z,4664.00
2019-04-11T12:22:12.417Z,4664.00
2019-04-11T12:23:12.962Z,4664.00
2019-04-11T12:24:13.397Z,4640.00
2019-04-11T12:25:12.420Z,4640.00
2019-04-11T12:26:13.675Z,4620.00
2019-04-11T12:27:13.145Z,4604.00
2019-04-11T12:28:13.703Z,4596.00
2019-04-11T12:29:12.232Z,4596.00
2019-04-11T12:30:11.756Z,4576.00
2019-04-11T12:31:11.710Z,4552.00
2019-04-11T12:32:13.260Z,4544.00
2019-04-11T12:33:11.649Z,4544.00
2019-04-11T12:34:12.357Z,4536.00
2019-04-11T12:35:11.660Z,4536.00